sensor_id;sensor_type;location;lat;lon;timestamp;pressure;altitude;pressure_sealevel;temperature;humidity
24306;BME280;12423;48.768;8.850;2023-03-25T00:01:13;96379.00;;;7.49;100.00
24306;BME280;12423;48.768;8.850;2023-03-25T00:03:15;96377.44;;;7.68;100.00
24306;BME280;12423;48.768;8.850;2023-03-25T00:05:19;96387.22;;;7.46;100.00
24306;BME280;12423;48.768;8.850;2023-03-25T00:07:21;96373.66;;;7.28;100.00
24306;BME280;12423;48.768;8.850;2023-03-25T00:09:22;96378.59;;;7.33;100.00
24306;BME280;12423;48.768;8.850;2023-03-25T00:11:23;96370.03;;;7.29;100.00
24306;BME280;12423;48.768;8.850;2023-03-25T00:13:25;96377.16;;;7.29;100.00
24306;BME280;12423;48.768;8.850;2023-03-25T00:15:26;96369.50;;;7.14;100.00
24306;BME280;12423;48.768;8.850;2023-03-25T00:17:29;96366.44;;;7.19;100.00
24306;BME280;12423;48.768;8.850;2023-03-25T00:19:30;96366.28;;;7.32;100.00
24306;BME280;12423;48.768;8.850;2023-03-25T00:21:31;96369.13;;;7.40;100.00
24306;BME280;12423;48.768;8.850;2023-03-25T00:23:33;96358.28;;;7.32;100.00
24306;BME280;12423;48.768;8.850;2023-03-25T00:25:34;96357.84;;;7.27;100.00
24306;BME280;12423;48.768;8.850;2023-03-25T00:27:35;96357.16;;;7.46;100.00
24306;BME280;12423;48.768;8.850;2023-03-25T00:29:36;96356.22;;;7.56;100.00
24306;BME280;12423;48.768;8.850;2023-03-25T00:31:38;96371.59;;;7.53;100.00
24306;BME280;12423;48.768;8.850;2023-03-25T00:33:40;96365.44;;;7.52;100.00
24306;BME280;12423;48.768;8.850;2023-03-25T00:35:43;96371.72;;;7.51;100.00
24306;BME280;12423;48.768;8.850;2023-03-25T00:37:45;96365.03;;;7.57;100.00
24306;BME280;12423;48.768;8.850;2023-03-25T00:39:47;96354.16;;;7.60;100.00
24306;BME280;12423;48.768;8.850;2023-03-25T00:41:48;96353.88;;;7.63;100.00
24306;BME280;12423;48.768;8.850;2023-03-25T00:43:59;96353.19;;;7.40;100.00
24306;BME280;12423;48.768;8.850;2023-03-25T00:46:00;96328.56;;;7.38;100.00
24306;BME280;12423;48.768;8.850;2023-03-25T00:48:02;96326.41;;;7.32;100.00
24306;BME280;12423;48.768;8.850;2023-03-25T00:50:03;96315.59;;;7.24;100.00
24306;BME280;12423;48.768;8.850;2023-03-25T00:52:05;96332.16;;;7.16;100.00
24306;BME280;12423;48.768;8.850;2023-03-25T00:54:08;96331.84;;;7.09;100.00
24306;BME280;12423;48.768;8.850;2023-03-25T00:56:10;96329.97;;;7.00;100.00
24306;BME280;12423;48.768;8.850;2023-03-25T00:58:11;96327.44;;;6.98;100.00
24306;BME280;12423;48.768;8.850;2023-03-25T01:00:15;96338.38;;;7.05;100.00
24306;BME280;12423;48.768;8.850;2023-03-25T01:02:16;96341.13;;;7.15;100.00
24306;BME280;12423;48.768;8.850;2023-03-25T01:04:19;96330.75;;;7.12;100.00
24306;BME280;12423;48.768;8.850;2023-03-25T01:06:20;96334.25;;;7.12;100.00
24306;BME280;12423;48.768;8.850;2023-03-25T01:08:21;96347.31;;;7.04;100.00
24306;BME280;12423;48.768;8.850;2023-03-25T01:10:29;96345.88;;;7.00;100.00
24306;BME280;12423;48.768;8.850;2023-03-25T01:12:30;96342.03;;;6.93;100.00
24306;BME280;12423;48.768;8.850;2023-03-25T01:14:31;96353.41;;;6.95;100.00
24306;BME280;12423;48.768;8.850;2023-03-25T01:16:32;96341.16;;;7.04;100.00
24306;BME280;12423;48.768;8.850;2023-03-25T01:18:33;96345.75;;;7.01;100.00
24306;BME280;12423;48.768;8.850;2023-03-25T01:20:40;96326.66;;;7.08;100.00
24306;BME280;12423;48.768;8.850;2023-03-25T01:22:41;96313.38;;;7.08;100.00
24306;BME280;12423;48.768;8.850;2023-03-25T01:24:42;96303.88;;;7.05;100.00
24306;BME280;12423;48.768;8.850;2023-03-25T01:26:43;96301.66;;;7.10;100.00
24306;BME280;12423;48.768;8.850;2023-03-25T01:28:45;96305.69;;;7.05;100.00
24306;BME280;12423;48.768;8.850;2023-03-25T01:30:46;96308.00;;;6.98;100.00
24306;BME280;12423;48.768;8.850;2023-03-25T01:32:47;96308.97;;;6.97;100.00
24306;BME280;12423;48.768;8.850;2023-03-25T01:34:48;96317.66;;;6.99;100.00
24306;BME280;12423;48.768;8.850;2023-03-25T01:36:49;96313.78;;;7.03;100.00
24306;BME280;12423;48.768;8.850;2023-03-25T01:38:51;96309.69;;;6.99;100.00
24306;BME280;12423;48.768;8.850;2023-03-25T01:40:52;96313.53;;;7.06;100.00
24306;BME280;12423;48.768;8.850;2023-03-25T01:42:54;96317.91;;;6.96;100.00
24306;BME280;12423;48.768;8.850;2023-03-25T01:45:13;96309.22;;;6.94;100.00
24306;BME280;12423;48.768;8.850;2023-03-25T01:47:14;96314.28;;;6.97;100.00
24306;BME280;12423;48.768;8.850;2023-03-25T01:49:20;96304.28;;;6.89;100.00
24306;BME280;12423;48.768;8.850;2023-03-25T01:51:28;96297.50;;;6.96;100.00
24306;BME280;12423;48.768;8.850;2023-03-25T01:53:31;96290.38;;;6.97;100.00
24306;BME280;12423;48.768;8.850;2023-03-25T01:55:34;96302.41;;;7.01;100.00
24306;BME280;12423;48.768;8.850;2023-03-25T01:57:38;96295.56;;;6.98;100.00
24306;BME280;12423;48.768;8.850;2023-03-25T01:59:43;96277.31;;;7.05;100.00
24306;BME280;12423;48.768;8.850;2023-03-25T02:01:45;96291.53;;;7.04;100.00
24306;BME280;12423;48.768;8.850;2023-03-25T02:03:50;96290.38;;;6.97;100.00
24306;BME280;12423;48.768;8.850;2023-03-25T02:06:04;96292.84;;;7.10;100.00
24306;BME280;12423;48.768;8.850;2023-03-25T02:08:07;96303.59;;;7.08;100.00
24306;BME280;12423;48.768;8.850;2023-03-25T02:10:12;96299.84;;;7.11;100.00
24306;BME280;12423;48.768;8.850;2023-03-25T02:12:13;96303.56;;;7.19;100.00
24306;BME280;12423;48.768;8.850;2023-03-25T02:14:18;96305.22;;;7.20;100.00
24306;BME280;12423;48.768;8.850;2023-03-25T02:26:07;96340.94;;;7.28;100.00
24306;BME280;12423;48.768;8.850;2023-03-25T02:32:52;96360.09;;;7.10;100.00
24306;BME280;12423;48.768;8.850;2023-03-25T02:39:48;96372.09;;;6.38;100.00
24306;BME280;12423;48.768;8.850;2023-03-25T02:42:12;96365.34;;;6.34;100.00
24306;BME280;12423;48.768;8.850;2023-03-25T02:44:28;96350.16;;;6.25;100.00
24306;BME280;12423;48.768;8.850;2023-03-25T02:46:31;96336.91;;;6.25;100.00
24306;BME280;12423;48.768;8.850;2023-03-25T02:50:50;96326.88;;;6.40;100.00
24306;BME280;12423;48.768;8.850;2023-03-25T02:52:58;96314.47;;;6.40;100.00
24306;BME280;12423;48.768;8.850;2023-03-25T02:55:01;96317.25;;;6.39;100.00
24306;BME280;12423;48.768;8.850;2023-03-25T02:57:06;96305.81;;;6.27;100.00
24306;BME280;12423;48.768;8.850;2023-03-25T02:59:09;96301.56;;;6.47;100.00
24306;BME280;12423;48.768;8.850;2023-03-25T03:01:14;96305.72;;;6.61;100.00
24306;BME280;12423;48.768;8.850;2023-03-25T03:06:42;96305.03;;;6.48;100.00
24306;BME280;12423;48.768;8.850;2023-03-25T03:13:21;96280.81;;;6.41;100.00
24306;BME280;12423;48.768;8.850;2023-03-25T03:20:12;96282.47;;;6.53;100.00
24306;BME280;12423;48.768;8.850;2023-03-25T03:26:34;96293.97;;;6.42;100.00
24306;BME280;12423;48.768;8.850;2023-03-25T03:28:44;96290.81;;;6.49;100.00
24306;BME280;12423;48.768;8.850;2023-03-25T03:30:52;96313.13;;;6.46;100.00
24306;BME280;12423;48.768;8.850;2023-03-25T03:33:04;96301.44;;;6.49;100.00
24306;BME280;12423;48.768;8.850;2023-03-25T03:35:16;96305.03;;;6.48;100.00
24306;BME280;12423;48.768;8.850;2023-03-25T03:37:23;96306.75;;;6.37;100.00
24306;BME280;12423;48.768;8.850;2023-03-25T03:39:34;96300.13;;;6.32;100.00
24306;BME280;12423;48.768;8.850;2023-03-25T03:41:37;96305.31;;;6.33;100.00
24306;BME280;12423;48.768;8.850;2023-03-25T03:45:51;96307.50;;;6.28;100.00
24306;BME280;12423;48.768;8.850;2023-03-25T03:47:54;96314.38;;;6.31;100.00
24306;BME280;12423;48.768;8.850;2023-03-25T03:49:59;96313.72;;;6.38;100.00
24306;BME280;12423;48.768;8.850;2023-03-25T03:52:12;96315.09;;;6.33;100.00
24306;BME280;12423;48.768;8.850;2023-03-25T03:54:21;96314.00;;;6.35;100.00
24306;BME280;12423;48.768;8.850;2023-03-25T03:56:34;96314.50;;;6.18;100.00
24306;BME280;12423;48.768;8.850;2023-03-25T03:58:39;96315.81;;;6.23;100.00
24306;BME280;12423;48.768;8.850;2023-03-25T04:00:49;96331.59;;;6.25;100.00
24306;BME280;12423;48.768;8.850;2023-03-25T04:03:02;96327.63;;;6.31;100.00
24306;BME280;12423;48.768;8.850;2023-03-25T04:05:11;96346.69;;;6.24;100.00
24306;BME280;12423;48.768;8.850;2023-03-25T04:07:19;96350.16;;;6.25;100.00
24306;BME280;12423;48.768;8.850;2023-03-25T04:09:26;96344.50;;;6.18;100.00
24306;BME280;12423;48.768;8.850;2023-03-25T04:11:42;96347.03;;;6.20;100.00
24306;BME280;12423;48.768;8.850;2023-03-25T04:13:48;96344.84;;;6.25;100.00
24306;BME280;12423;48.768;8.850;2023-03-25T04:15:50;96354.03;;;6.21;100.00
24306;BME280;12423;48.768;8.850;2023-03-25T04:17:52;96356.56;;;6.22;100.00
24306;BME280;12423;48.768;8.850;2023-03-25T04:19:53;96356.56;;;6.22;100.00
24306;BME280;12423;48.768;8.850;2023-03-25T04:21:54;96358.13;;;6.25;100.00
24306;BME280;12423;48.768;8.850;2023-03-25T04:23:55;96354.41;;;6.27;100.00
24306;BME280;12423;48.768;8.850;2023-03-25T04:25:56;96348.50;;;6.24;100.00
24306;BME280;12423;48.768;8.850;2023-03-25T04:27:58;96367.06;;;6.13;100.00
24306;BME280;12423;48.768;8.850;2023-03-25T04:29:59;96368.03;;;6.23;100.00
24306;BME280;12423;48.768;8.850;2023-03-25T04:32:01;96363.06;;;6.30;100.00
24306;BME280;12423;48.768;8.850;2023-03-25T04:34:02;96362.59;;;6.02;100.00
24306;BME280;12423;48.768;8.850;2023-03-25T04:36:04;96350.69;;;6.19;100.00
24306;BME280;12423;48.768;8.850;2023-03-25T04:38:06;96346.56;;;6.15;100.00
24306;BME280;12423;48.768;8.850;2023-03-25T04:40:08;96346.56;;;6.15;100.00
24306;BME280;12423;48.768;8.850;2023-03-25T04:42:09;96356.44;;;6.24;100.00
24306;BME280;12423;48.768;8.850;2023-03-25T04:44:13;96355.47;;;6.14;100.00
24306;BME280;12423;48.768;8.850;2023-03-25T04:46:15;96363.94;;;5.96;100.00
24306;BME280;12423;48.768;8.850;2023-03-25T04:48:22;96357.88;;;5.94;100.00
24306;BME280;12423;48.768;8.850;2023-03-25T04:50:27;96351.34;;;5.87;100.00
24306;BME280;12423;48.768;8.850;2023-03-25T04:52:28;96351.22;;;5.66;100.00
24306;BME280;12423;48.768;8.850;2023-03-25T04:54:29;96356.75;;;5.74;100.00
24306;BME280;12423;48.768;8.850;2023-03-25T04:56:30;96359.78;;;5.92;100.00
24306;BME280;12423;48.768;8.850;2023-03-25T04:58:31;96368.00;;;5.78;100.00
24306;BME280;12423;48.768;8.850;2023-03-25T05:00:32;96384.84;;;5.77;100.00
24306;BME280;12423;48.768;8.850;2023-03-25T05:02:33;96377.13;;;5.85;100.00
24306;BME280;12423;48.768;8.850;2023-03-25T05:04:34;96385.06;;;5.73;100.00
24306;BME280;12423;48.768;8.850;2023-03-25T05:06:39;96387.03;;;5.83;100.00
24306;BME280;12423;48.768;8.850;2023-03-25T05:08:41;96383.41;;;5.95;100.00
24306;BME280;12423;48.768;8.850;2023-03-25T05:10:42;96385.28;;;6.06;100.00
24306;BME280;12423;48.768;8.850;2023-03-25T05:12:43;96385.16;;;6.07;100.00
24306;BME280;12423;48.768;8.850;2023-03-25T05:14:44;96378.50;;;6.13;100.00
24306;BME280;12423;48.768;8.850;2023-03-25T05:16:46;96380.31;;;6.24;100.00
24306;BME280;12423;48.768;8.850;2023-03-25T05:18:48;96382.50;;;6.19;100.00
24306;BME280;12423;48.768;8.850;2023-03-25T05:20:49;96392.13;;;6.08;100.00
24306;BME280;12423;48.768;8.850;2023-03-25T05:22:50;96391.88;;;6.34;100.00
24306;BME280;12423;48.768;8.850;2023-03-25T05:24:53;96382.97;;;6.35;100.00
24306;BME280;12423;48.768;8.850;2023-03-25T05:26:54;96390.34;;;6.20;100.00
24306;BME280;12423;48.768;8.850;2023-03-25T05:28:54;96391.28;;;6.19;100.00
24306;BME280;12423;48.768;8.850;2023-03-25T05:30:56;96401.53;;;6.24;100.00
24306;BME280;12423;48.768;8.850;2023-03-25T05:32:57;96401.66;;;6.22;100.00
24306;BME280;12423;48.768;8.850;2023-03-25T05:35:00;96404.91;;;6.26;100.00
24306;BME280;12423;48.768;8.850;2023-03-25T05:37:01;96412.16;;;6.24;100.00
24306;BME280;12423;48.768;8.850;2023-03-25T05:39:03;96390.94;;;6.24;100.00
24306;BME280;12423;48.768;8.850;2023-03-25T05:41:05;96404.78;;;6.39;100.00
24306;BME280;12423;48.768;8.850;2023-03-25T05:43:10;96403.44;;;6.22;100.00
24306;BME280;12423;48.768;8.850;2023-03-25T05:45:11;96409.00;;;6.41;100.00
24306;BME280;12423;48.768;8.850;2023-03-25T05:47:12;96404.44;;;6.43;100.00
24306;BME280;12423;48.768;8.850;2023-03-25T05:49:13;96410.34;;;6.36;100.00
24306;BME280;12423;48.768;8.850;2023-03-25T05:51:17;96407.56;;;6.37;100.00
24306;BME280;12423;48.768;8.850;2023-03-25T05:53:18;96409.75;;;6.32;100.00
24306;BME280;12423;48.768;8.850;2023-03-25T05:55:21;96412.41;;;6.43;100.00
24306;BME280;12423;48.768;8.850;2023-03-25T05:57:22;96407.31;;;6.52;100.00
24306;BME280;12423;48.768;8.850;2023-03-25T05:59:23;96410.31;;;6.58;100.00
24306;BME280;12423;48.768;8.850;2023-03-25T06:01:24;96408.97;;;6.64;100.00
24306;BME280;12423;48.768;8.850;2023-03-25T06:03:25;96421.00;;;6.68;100.00
24306;BME280;12423;48.768;8.850;2023-03-25T06:05:27;96410.16;;;6.71;100.00
24306;BME280;12423;48.768;8.850;2023-03-25T06:07:29;96422.94;;;6.77;100.00
24306;BME280;12423;48.768;8.850;2023-03-25T06:09:30;96427.28;;;6.90;100.00
24306;BME280;12423;48.768;8.850;2023-03-25T06:11:35;96430.28;;;6.96;100.00
24306;BME280;12423;48.768;8.850;2023-03-25T06:13:37;96429.41;;;6.96;100.00
24306;BME280;12423;48.768;8.850;2023-03-25T06:15:38;96423.91;;;6.76;100.00
24306;BME280;12423;48.768;8.850;2023-03-25T06:17:41;96425.03;;;6.62;100.00
24306;BME280;12423;48.768;8.850;2023-03-25T06:19:42;96420.06;;;6.58;100.00
24306;BME280;12423;48.768;8.850;2023-03-25T06:21:43;96419.13;;;6.59;100.00
24306;BME280;12423;48.768;8.850;2023-03-25T06:23:49;96416.56;;;6.69;100.00
24306;BME280;12423;48.768;8.850;2023-03-25T06:25:50;96418.13;;;6.60;100.00
24306;BME280;12423;48.768;8.850;2023-03-25T06:27:51;96416.09;;;6.75;100.00
24306;BME280;12423;48.768;8.850;2023-03-25T06:29:52;96414.50;;;6.83;100.00
24306;BME280;12423;48.768;8.850;2023-03-25T06:31:53;96420.03;;;6.92;100.00
24306;BME280;12423;48.768;8.850;2023-03-25T06:33:54;96413.34;;;6.97;100.00
24306;BME280;12423;48.768;8.850;2023-03-25T06:35:55;96407.56;;;7.04;100.00
24306;BME280;12423;48.768;8.850;2023-03-25T06:37:56;96409.63;;;7.00;100.00
24306;BME280;12423;48.768;8.850;2023-03-25T06:40:05;96414.81;;;7.01;100.00
24306;BME280;12423;48.768;8.850;2023-03-25T06:42:06;96411.00;;;7.15;100.00
24306;BME280;12423;48.768;8.850;2023-03-25T06:44:20;96417.69;;;7.31;100.00
24306;BME280;12423;48.768;8.850;2023-03-25T06:46:40;96418.91;;;7.38;100.00
24306;BME280;12423;48.768;8.850;2023-03-25T06:49:16;96422.94;;;7.53;100.00
24306;BME280;12423;48.768;8.850;2023-03-25T06:51:17;96430.06;;;7.53;100.00
24306;BME280;12423;48.768;8.850;2023-03-25T06:53:18;96429.81;;;7.56;100.00
24306;BME280;12423;48.768;8.850;2023-03-25T06:55:19;96434.25;;;7.55;100.00
24306;BME280;12423;48.768;8.850;2023-03-25T06:57:20;96433.81;;;7.50;100.00
24306;BME280;12423;48.768;8.850;2023-03-25T06:59:21;96436.78;;;7.57;100.00
24306;BME280;12423;48.768;8.850;2023-03-25T07:01:22;96440.91;;;7.61;100.00
24306;BME280;12423;48.768;8.850;2023-03-25T07:03:23;96430.59;;;7.68;100.00
24306;BME280;12423;48.768;8.850;2023-03-25T07:05:24;96450.06;;;7.36;100.00
24306;BME280;12423;48.768;8.850;2023-03-25T07:07:25;96444.59;;;7.16;100.00
24306;BME280;12423;48.768;8.850;2023-03-25T07:09:26;96442.19;;;7.13;100.00
24306;BME280;12423;48.768;8.850;2023-03-25T07:11:28;96433.16;;;7.05;100.00
24306;BME280;12423;48.768;8.850;2023-03-25T07:13:30;96442.06;;;7.04;100.00
24306;BME280;12423;48.768;8.850;2023-03-25T07:15:31;96440.22;;;7.15;100.00
24306;BME280;12423;48.768;8.850;2023-03-25T07:17:32;96436.94;;;7.23;100.00
24306;BME280;12423;48.768;8.850;2023-03-25T07:19:33;96428.16;;;7.44;100.00
24306;BME280;12423;48.768;8.850;2023-03-25T07:21:34;96418.97;;;7.48;100.00
24306;BME280;12423;48.768;8.850;2023-03-25T07:23:35;96418.31;;;7.55;100.00
24306;BME280;12423;48.768;8.850;2023-03-25T07:25:36;96425.34;;;7.56;100.00
24306;BME280;12423;48.768;8.850;2023-03-25T07:27:37;96410.63;;;7.52;100.00
24306;BME280;12423;48.768;8.850;2023-03-25T07:29:43;96420.72;;;7.59;100.00
24306;BME280;12423;48.768;8.850;2023-03-25T07:31:44;96416.16;;;7.61;100.00
24306;BME280;12423;48.768;8.850;2023-03-25T07:33:46;96423.31;;;7.70;100.00
24306;BME280;12423;48.768;8.850;2023-03-25T07:35:47;96418.00;;;7.70;100.00
24306;BME280;12423;48.768;8.850;2023-03-25T07:37:48;96412.94;;;7.67;100.00
24306;BME280;12423;48.768;8.850;2023-03-25T07:39:49;96417.19;;;7.69;100.00
24306;BME280;12423;48.768;8.850;2023-03-25T07:41:51;96404.91;;;7.78;100.00
24306;BME280;12423;48.768;8.850;2023-03-25T07:44:03;96408.16;;;7.82;100.00
24306;BME280;12423;48.768;8.850;2023-03-25T07:46:06;96408.34;;;7.90;100.00
24306;BME280;12423;48.768;8.850;2023-03-25T07:48:07;96413.00;;;7.98;100.00
24306;BME280;12423;48.768;8.850;2023-03-25T07:50:14;96404.78;;;8.01;100.00
24306;BME280;12423;48.768;8.850;2023-03-25T07:52:15;96411.81;;;8.11;100.00
24306;BME280;12423;48.768;8.850;2023-03-25T07:54:16;96405.41;;;8.14;100.00
24306;BME280;12423;48.768;8.850;2023-03-25T07:56:17;96402.59;;;8.16;100.00
24306;BME280;12423;48.768;8.850;2023-03-25T07:58:18;96398.63;;;8.10;100.00
24306;BME280;12423;48.768;8.850;2023-03-25T08:00:20;96401.03;;;8.13;100.00
24306;BME280;12423;48.768;8.850;2023-03-25T08:02:21;96394.81;;;8.24;100.00
24306;BME280;12423;48.768;8.850;2023-03-25T08:04:21;96397.34;;;8.25;100.00
24306;BME280;12423;48.768;8.850;2023-03-25T08:06:22;96396.22;;;8.28;100.00
24306;BME280;12423;48.768;8.850;2023-03-25T08:08:23;96391.31;;;8.33;100.00
24306;BME280;12423;48.768;8.850;2023-03-25T08:10:25;96403.59;;;8.45;100.00
24306;BME280;12423;48.768;8.850;2023-03-25T08:12:26;96409.97;;;8.64;100.00
24306;BME280;12423;48.768;8.850;2023-03-25T08:14:28;96417.91;;;8.54;100.00
24306;BME280;12423;48.768;8.850;2023-03-25T08:16:29;96417.09;;;8.54;100.00
24306;BME280;12423;48.768;8.850;2023-03-25T08:18:29;96417.63;;;8.47;100.00
24306;BME280;12423;48.768;8.850;2023-03-25T08:20:34;96423.72;;;8.38;100.00
24306;BME280;12423;48.768;8.850;2023-03-25T08:22:35;96433.91;;;7.81;100.00
24306;BME280;12423;48.768;8.850;2023-03-25T08:24:36;96439.38;;;7.47;100.00
24306;BME280;12423;48.768;8.850;2023-03-25T08:26:37;96434.84;;;7.38;100.00
24306;BME280;12423;48.768;8.850;2023-03-25T08:28:38;96445.72;;;7.35;100.00
24306;BME280;12423;48.768;8.850;2023-03-25T08:30:39;96442.34;;;7.33;100.00
24306;BME280;12423;48.768;8.850;2023-03-25T08:32:40;96443.59;;;7.17;100.00
24306;BME280;12423;48.768;8.850;2023-03-25T08:34:41;96447.91;;;7.30;100.00
24306;BME280;12423;48.768;8.850;2023-03-25T08:36:42;96449.19;;;7.14;100.00
24306;BME280;12423;48.768;8.850;2023-03-25T08:38:43;96453.03;;;7.10;100.00
24306;BME280;12423;48.768;8.850;2023-03-25T08:40:44;96454.06;;;6.98;100.00
24306;BME280;12423;48.768;8.850;2023-03-25T08:42:45;96465.38;;;7.00;100.00
24306;BME280;12423;48.768;8.850;2023-03-25T08:44:46;96461.53;;;6.93;100.00
24306;BME280;12423;48.768;8.850;2023-03-25T08:46:47;96469.53;;;6.81;100.00
24306;BME280;12423;48.768;8.850;2023-03-25T08:48:48;96467.59;;;6.83;100.00
24306;BME280;12423;48.768;8.850;2023-03-25T08:50:49;96475.78;;;6.80;100.00
24306;BME280;12423;48.768;8.850;2023-03-25T08:52:50;96473.34;;;7.00;100.00
24306;BME280;12423;48.768;8.850;2023-03-25T08:54:53;96460.19;;;6.98;100.00
24306;BME280;12423;48.768;8.850;2023-03-25T08:56:54;96459.66;;;7.16;100.00
24306;BME280;12423;48.768;8.850;2023-03-25T08:58:55;96450.13;;;7.25;100.00
24306;BME280;12423;48.768;8.850;2023-03-25T09:00:56;96434.47;;;7.43;100.00
24306;BME280;12423;48.768;8.850;2023-03-25T09:02:57;96436.47;;;7.50;100.00
24306;BME280;12423;48.768;8.850;2023-03-25T09:04:59;96437.88;;;7.66;100.00
24306;BME280;12423;48.768;8.850;2023-03-25T09:07:00;96438.16;;;7.51;100.00
24306;BME280;12423;48.768;8.850;2023-03-25T09:09:01;96437.25;;;7.62;100.00
24306;BME280;12423;48.768;8.850;2023-03-25T09:11:02;96434.66;;;7.72;100.00
24306;BME280;12423;48.768;8.850;2023-03-25T09:13:03;96440.09;;;7.70;100.00
24306;BME280;12423;48.768;8.850;2023-03-25T09:15:05;96440.47;;;7.77;100.00
24306;BME280;12423;48.768;8.850;2023-03-25T09:17:06;96439.19;;;7.60;100.00
24306;BME280;12423;48.768;8.850;2023-03-25T09:19:09;96431.81;;;7.43;100.00
24306;BME280;12423;48.768;8.850;2023-03-25T09:21:10;96441.19;;;7.47;100.00
24306;BME280;12423;48.768;8.850;2023-03-25T09:23:11;96436.00;;;7.45;100.00
24306;BME280;12423;48.768;8.850;2023-03-25T09:25:13;96435.59;;;7.61;100.00
24306;BME280;12423;48.768;8.850;2023-03-25T09:27:14;96436.69;;;7.80;100.00
24306;BME280;12423;48.768;8.850;2023-03-25T09:29:15;96424.44;;;7.67;100.00
24306;BME280;12423;48.768;8.850;2023-03-25T09:31:16;96424.56;;;7.66;100.00
24306;BME280;12423;48.768;8.850;2023-03-25T09:33:17;96427.88;;;7.79;100.00
24306;BME280;12423;48.768;8.850;2023-03-25T09:35:18;96435.78;;;7.90;100.00
24306;BME280;12423;48.768;8.850;2023-03-25T09:37:20;96442.91;;;7.48;100.00
24306;BME280;12423;48.768;8.850;2023-03-25T09:39:21;96433.47;;;7.44;100.00
24306;BME280;12423;48.768;8.850;2023-03-25T09:44:16;96431.00;;;7.84;100.00
24306;BME280;12423;48.768;8.850;2023-03-25T09:46:18;96425.97;;;8.12;100.00
24306;BME280;12423;48.768;8.850;2023-03-25T09:48:41;96431.69;;;8.07;100.00
24306;BME280;12423;48.768;8.850;2023-03-25T09:50:44;96425.47;;;8.28;100.00
24306;BME280;12423;48.768;8.850;2023-03-25T09:55:04;96419.94;;;8.72;100.00
24306;BME280;12423;48.768;8.850;2023-03-25T09:57:07;96424.78;;;9.17;100.00
24306;BME280;12423;48.768;8.850;2023-03-25T09:59:18;96418.50;;;9.28;100.00
24306;BME280;12423;48.768;8.850;2023-03-25T10:01:27;96426.34;;;9.10;100.00
24306;BME280;12423;48.768;8.850;2023-03-25T10:04:17;96429.03;;;9.29;100.00
24306;BME280;12423;48.768;8.850;2023-03-25T10:06:16;96429.56;;;9.13;100.00
24306;BME280;12423;48.768;8.850;2023-03-25T10:10:38;96426.56;;;8.87;100.00
24306;BME280;12423;48.768;8.850;2023-03-25T10:18:13;96426.25;;;9.50;100.00
24306;BME280;12423;48.768;8.850;2023-03-25T10:20:24;96422.56;;;9.81;100.00
24306;BME280;12423;48.768;8.850;2023-03-25T10:22:40;96417.44;;;10.17;100.00
24306;BME280;12423;48.768;8.850;2023-03-25T10:24:51;96416.84;;;10.32;100.00
24306;BME280;12423;48.768;8.850;2023-03-25T10:27:25;96431.31;;;10.30;100.00
24306;BME280;12423;48.768;8.850;2023-03-25T10:29:35;96423.75;;;10.15;100.00
24306;BME280;12423;48.768;8.850;2023-03-25T10:31:47;96424.81;;;9.75;100.00
24306;BME280;12423;48.768;8.850;2023-03-25T10:33:54;96428.88;;;9.60;100.00
24306;BME280;12423;48.768;8.850;2023-03-25T10:35:58;96437.88;;;9.59;100.00
24306;BME280;12423;48.768;8.850;2023-03-25T10:38:11;96443.31;;;9.28;100.00
24306;BME280;12423;48.768;8.850;2023-03-25T10:44:26;96442.09;;;8.72;100.00
24306;BME280;12423;48.768;8.850;2023-03-25T10:46:41;96440.56;;;8.70;100.00
24306;BME280;12423;48.768;8.850;2023-03-25T10:48:47;96435.78;;;8.73;100.00
24306;BME280;12423;48.768;8.850;2023-03-25T10:50:51;96431.41;;;9.52;100.00
24306;BME280;12423;48.768;8.850;2023-03-25T10:52:53;96424.47;;;10.08;100.00
24306;BME280;12423;48.768;8.850;2023-03-25T10:54:57;96432.63;;;10.06;100.00
24306;BME280;12423;48.768;8.850;2023-03-25T10:57:00;96444.22;;;10.44;100.00
24306;BME280;12423;48.768;8.850;2023-03-25T10:59:14;96431.53;;;10.56;100.00
24306;BME280;12423;48.768;8.850;2023-03-25T11:01:19;96433.00;;;10.68;100.00
24306;BME280;12423;48.768;8.850;2023-03-25T11:03:29;96432.09;;;10.87;100.00
24306;BME280;12423;48.768;8.850;2023-03-25T11:05:32;96428.25;;;10.35;100.00
24306;BME280;12423;48.768;8.850;2023-03-25T11:07:39;96439.75;;;10.73;100.00
24306;BME280;12423;48.768;8.850;2023-03-25T11:09:41;96430.19;;;10.98;100.00
24306;BME280;12423;48.768;8.850;2023-03-25T11:11:43;96415.84;;;10.99;100.00
24306;BME280;12423;48.768;8.850;2023-03-25T11:13:44;96415.69;;;12.34;100.00
24306;BME280;12423;48.768;8.850;2023-03-25T11:15:45;96406.91;;;13.60;100.00
24306;BME280;12423;48.768;8.850;2023-03-25T11:17:55;96404.13;;;13.19;99.48
24306;BME280;12423;48.768;8.850;2023-03-25T11:20:04;96401.41;;;13.70;100.00
24306;BME280;12423;48.768;8.850;2023-03-25T11:22:28;96396.69;;;13.56;96.44
24306;BME280;12423;48.768;8.850;2023-03-25T11:24:34;96389.97;;;13.43;93.34
24306;BME280;12423;48.768;8.850;2023-03-25T11:26:40;96401.72;;;13.83;89.74
24306;BME280;12423;48.768;8.850;2023-03-25T11:28:47;96398.84;;;14.10;86.22
24306;BME280;12423;48.768;8.850;2023-03-25T11:31:06;96391.94;;;14.24;89.84
24306;BME280;12423;48.768;8.850;2023-03-25T11:33:13;96403.25;;;13.78;83.66
24306;BME280;12423;48.768;8.850;2023-03-25T11:35:21;96395.88;;;15.40;82.20
24306;BME280;12423;48.768;8.850;2023-03-25T11:37:23;96409.00;;;15.43;78.73
24306;BME280;12423;48.768;8.850;2023-03-25T11:39:34;96384.59;;;15.44;74.36
24306;BME280;12423;48.768;8.850;2023-03-25T11:41:36;96400.91;;;13.83;74.77
24306;BME280;12423;48.768;8.850;2023-03-25T11:43:39;96404.94;;;13.03;81.82
24306;BME280;12423;48.768;8.850;2023-03-25T11:45:40;96417.84;;;11.87;88.60
24306;BME280;12423;48.768;8.850;2023-03-25T11:47:45;96417.19;;;11.49;94.85
24306;BME280;12423;48.768;8.850;2023-03-25T11:49:47;96416.66;;;11.27;100.00
24306;BME280;12423;48.768;8.850;2023-03-25T11:51:56;96422.47;;;10.95;100.00
24306;BME280;12423;48.768;8.850;2023-03-25T11:54:01;96407.19;;;12.82;100.00